Flight Track Log - Related Links

Times and Time Zones

All times are in EST time to prevent confusion due to time zone crossing. See the SKW6492 flight status page for this flight to view local times or setup timezone preferences in your user account.

Time Position Orientation Groundspeed Altitude Reporting Facility
EST Latitude Longitude Course Direction KTS MPH feet Rate Location/Type
Sat 10:51:43 PM 39.9167 -104.6833 346° North 179 206 6,900  Level Denver TRACON
Sat 10:52:43 PM 39.9833 -104.6500 21° North 261 300 8,800 2,579 Climbing Denver TRACON
Sat 10:53:37 PM 40.0333 -104.6000 37° Northeast 252 290 11,800 2,500 Climbing Denver TRACON
Sat 10:54:00 PM 40.2421 -104.7943 347° North  Level FlightAware Approximate
Sat 10:55:00 PM 40.3406 -104.8247 346° North  Level FlightAware Approximate
Sat 10:55:07 PM 40.1347 -104.5986 North 259 298 14,800  Level Denver Center
Sat 10:56:00 PM 40.4387 -104.8573 346° North  Level FlightAware Approximate
Sat 10:56:19 PM 40.2122 -104.6272 344° North 289 333 16,300  Level Denver Center
Sat 10:57:20 PM 40.3164 -104.6683 343° North 319 367 18,600 1,967 Climbing Denver Center
Sat 10:58:21 PM 40.4017 -104.7014 344° North 317 365 20,300 1,339 Climbing Denver Center
Sat 10:59:21 PM 40.4864 -104.7333 344° North 321 369 21,300 745 Climbing Denver Center
Sat 11:00:46 PM 40.6014 -104.7769 344° North 356 410 22,100 575 Climbing Denver Center
Sat 11:01:47 PM 40.7217 -104.8219 344° North 372 428 22,700 545 Climbing Denver Center
Sat 11:02:47 PM 40.8272 -104.8661 342° North 393 452 23,200 545 Climbing Denver Center
Sat 11:03:48 PM 40.9317 -104.9186 339° North 402 463 23,800 738 Climbing Denver Center
Sat 11:04:49 PM 41.0350 -104.9708 339° North 406 467 24,700 942 Climbing Denver Center
Sat 11:05:49 PM 41.1419 -105.0550 329° Northwest 423 487 25,700 992 Climbing Denver Center
Sat 11:06:50 PM 41.2236 -105.1400 322° Northwest 395 455 26,700 992 Climbing Denver Center
Sat 11:07:50 PM 41.3036 -105.2283 320° Northwest 392 451 27,700 992 Climbing Denver Center
Sat 11:08:51 PM 41.3950 -105.3306 320° Northwest 386 444 28,700 843 Climbing Denver Center
Sat 11:09:51 PM 41.4725 -105.4156 321° Northwest 380 437 29,400 595 Climbing Denver Center
Sat 11:10:52 PM 41.5506 -105.5033 320° Northwest 382 440 29,900 541 Climbing Denver Center
Sat 11:11:53 PM 41.6428 -105.6061 320° Northwest 385 443 30,500 545 Climbing Denver Center
Sat 11:12:53 PM 41.7219 -105.6936 320° Northwest 385 443 31,000 446 Climbing Denver Center
Sat 11:13:54 PM 41.8033 -105.7844 320° Northwest 391 450 31,400 446 Climbing Denver Center
Sat 11:14:54 PM 41.8850 -105.8767 320° Northwest 397 457 31,900 298 Climbing Denver Center
Sat 11:15:55 PM 41.9806 -105.9842 320° Northwest 402 463 32,000 50 Climbing Denver Center
Sat 11:16:55 PM 42.0631 -106.0769 320° Northwest 403 464 32,000  Level Denver Center
Sat 11:17:56 PM 42.1433 -106.1694 320° Northwest 398 458 32,000  Level Denver Center
Sat 11:18:57 PM 42.2403 -106.2792 320° Northwest 405 466 32,000  Level Denver Center
Sat 11:19:57 PM 42.3225 -106.3753 319° Northwest 408 470 32,000  Level Denver Center
Sat 11:20:58 PM 42.4056 -106.4703 320° Northwest 407 468 32,000  Level Denver Center
Sat 11:21:58 PM 42.5033 -106.5836 320° Northwest 412 474 32,000  Level Denver Center
Sat 11:22:59 PM 42.5867 -106.6808 319° Northwest 412 474 32,000  Level Denver Center
Sat 11:23:59 PM 42.6708 -106.7767 320° Northwest 412 474 32,000  Level Denver Center
Sat 11:25:00 PM 42.7681 -106.8897 320° Northwest 412 474 32,000  Level Denver Center
Sat 11:26:00 PM 42.8519 -106.9869 320° Northwest 413 475 32,000  Level Denver Center
Sat 11:26:34 PM 42.8906 -107.0342 318° Northwest 410 472 32,000  Level Salt Lake Center
Sat 11:27:35 PM 42.9889 -107.1519 319° Northwest 410 472 32,000  Level Salt Lake Center
Sat 11:28:36 PM 43.0736 -107.2525 319° Northwest 406 467 32,000  Level Salt Lake Center
Sat 11:29:36 PM 43.1586 -107.3519 320° Northwest 404 465 32,000  Level Salt Lake Center
Sat 11:30:37 PM 43.2433 -107.4536 319° Northwest 406 467 32,000  Level Salt Lake Center
Sat 11:31:37 PM 43.3286 -107.5569 319° Northwest 408 470 32,000  Level Salt Lake Center
Sat 11:32:38 PM 43.4144 -107.6597 319° Northwest 410 472 32,000  Level Salt Lake Center
Sat 11:33:39 PM 43.4992 -107.7606 319° Northwest 405 466 32,000 -645 Level Salt Lake Center
Sat 11:34:39 PM 43.5842 -107.8642 319° Northwest 408 470 30,700 -1,636 Descending Salt Lake Center
Sat 11:35:40 PM 43.6650 -107.9619 319° Northwest 389 448 28,700 -1,967 Descending Salt Lake Center
Sat 11:36:41 PM 43.7381 -108.0536 318° Northwest 361 415 26,700 -1,983 Descending Salt Lake Center
Sat 11:37:41 PM 43.8072 -108.1381 319° Northwest 337 388 24,700 -1,983 Descending Salt Lake Center
Sat 11:38:42 PM 43.8733 -108.2200 318° Northwest 322 371 22,700 -2,033 Descending Salt Lake Center
Sat 11:39:42 PM 43.9356 -108.2967 318° Northwest 305 351 20,600 -1,983 Descending Salt Lake Center
Sat 11:40:43 PM 43.9944 -108.3708 318° Northwest 295 339 18,700 -1,918 Descending Salt Lake Center
Sat 11:41:44 PM 44.0528 -108.4425 319° Northwest 288 331 16,700 -1,983 Descending Salt Lake Center
Sat 11:42:44 PM 44.1100 -108.5136 318° Northwest 282 325 14,700 -1,686 Descending Salt Lake Center
Sat 11:43:45 PM 44.1683 -108.5858 318° Northwest 280 322 13,300 -1,488 Descending Salt Lake Center
Sat 11:44:45 PM 44.2261 -108.6558 319° Northwest 279 321 11,700 -1,488 Descending Salt Lake Center
Sat 11:45:46 PM 44.2836 -108.7272 318° Northwest 277 319 10,300 -1,328 Descending Salt Lake Center
Sat 11:46:47 PM 44.3400 -108.7975 318° Northwest 276 318 9,000 -645 Descending Salt Lake Center
Sat 11:47:47 PM 44.3853 -108.8550 318° Northwest 252 290 9,000 -99 Level Salt Lake Center
Sat 11:48:48 PM 44.4261 -108.8758 340° North 196 226 8,800 -397 Descending Salt Lake Center
Sat 11:49:48 PM 44.4706 -108.9086 332° Northwest 180 207 8,200 -793 Descending Salt Lake Center
Sat 11:50:49 PM 44.5161 -108.9183 351° North 173 199 7,200 -1,140 Descending Salt Lake Center
Sat 11:51:49 PM 44.5461 -108.9650 312° West 153 176 5,900 -843 Descending Salt Lake Center
Sat 11:52:50 PM 44.5322 -109.0053 244° Southwest 153 176 5,500 -393 Descending Salt Lake Center

Login

Don't have an account? Register now (free) for customized features, flight alerts, and more!